Time;durP1;ratioP1;P1;durP2;ratioP2;P2;SDS_P1;SDS_P2;PMS_P1;PMS_P2;Temp;Humidity;BMP_temperature;BMP_pressure;BME280_temperature;BME280_humidity;BME280_pressure;Samples;Min_cycle;Max_cycle;Signal;HPM_P1;HPM_P2
2022/03/17 00:00:32;;;;;;;;;;;15.20;44.70;;;;;;5079362;28;19913;-89
2022/03/17 00:02:58;;;;;;;;;;;15.20;44.80;;;;;;5080419;28;19946;-91
2022/03/17 00:05:23;;;;;;;;;;;15.20;44.80;;;;;;5080441;28;19913;-90
2022/03/17 00:07:49;;;;;;;;;;;15.20;44.80;;;;;;5059894;28;19917;-90
2022/03/17 00:10:15;;;;;;;;;;;15.20;44.80;;;;;;5080477;28;20271;-89
2022/03/17 00:12:44;;;;;;;;;;;15.20;44.90;;;;;;5061546;28;19961;-89
2022/03/17 00:15:10;;;;;;;;;;;15.10;44.90;;;;;;5062206;28;20367;-89
2022/03/17 00:17:36;;;;;;;;;;;15.10;44.90;;;;;;5060750;28;19924;-91
2022/03/17 00:20:02;;;;;;;;;;;15.10;45.00;;;;;;5060760;28;19930;-89
2022/03/17 00:22:28;;;;;;;;;;;15.10;45.00;;;;;;5066482;28;19978;-89
2022/03/17 00:24:54;;;;;;;;;;;15.00;45.10;;;;;;5059415;28;20357;-91
2022/03/17 00:27:20;;;;;;;;;;;15.00;45.10;;;;;;5065796;28;19908;-90
2022/03/17 00:29:46;;;;;;;;;;;15.00;45.20;;;;;;5063365;28;20325;-89
2022/03/17 00:32:12;;;;;;;;;;;15.00;45.20;;;;;;5061947;28;20541;-90
2022/03/17 00:35:35;;;;;;;;;;;15.00;45.20;;;;;;5079129;28;19908;-89
2022/03/17 00:37:24;;;;;;;;;;;15.10;45.20;;;;;;5077579;28;20809;-90
2022/03/17 00:39:49;;;;;;;;;;;15.10;45.20;;;;;;5082625;28;19913;-90
2022/03/17 00:42:15;;;;;;;;;;;15.00;45.20;;;;;;5062752;28;20413;-89
2022/03/17 00:44:41;;;;;;;;;;;15.10;45.20;;;;;;5081864;28;19916;-88
2022/03/17 00:47:07;;;;;;;;;;;15.10;45.20;;;;;;5062787;28;19948;-88
2022/03/17 00:49:33;;;;;;;;;;;15.10;45.20;;;;;;5059995;28;19928;-89
2022/03/17 00:51:58;;;;;;;;;;;15.10;45.20;;;;;;5062227;28;19918;-87
2022/03/17 00:54:23;;;;;;;;;;;15.10;45.20;;;;;;5064490;28;19917;-91
2022/03/17 00:56:49;;;;;;;;;;;15.10;45.20;;;;;;5063432;28;19916;-91
2022/03/17 00:59:14;;;;;;;;;;;15.10;45.30;;;;;;5080468;28;19924;-88
2022/03/17 01:01:40;;;;;;;;;;;15.10;45.30;;;;;;5061602;28;19915;-90
2022/03/17 01:04:05;;;;;;;;;;;15.20;45.30;;;;;;5060704;28;19920;-90
2022/03/17 01:06:31;;;;;;;;;;;15.10;45.40;;;;;;5080494;28;19892;-90
2022/03/17 01:08:56;;;;;;;;;;;15.10;45.40;;;;;;5079485;28;19924;-88
2022/03/17 01:11:22;;;;;;;;;;;15.10;45.40;;;;;;5077460;28;19958;-91
2022/03/17 01:13:47;;;;;;;;;;;15.20;45.40;;;;;;5059253;28;20360;-88
2022/03/17 01:16:13;;;;;;;;;;;15.20;45.40;;;;;;5059560;28;19916;-90
2022/03/17 01:18:39;;;;;;;;;;;15.20;45.40;;;;;;5062285;28;19920;-91
2022/03/17 01:21:04;;;;;;;;;;;15.20;45.50;;;;;;5064151;28;19996;-91
2022/03/17 01:23:30;;;;;;;;;;;15.20;45.50;;;;;;5058538;28;20007;-89
2022/03/17 01:25:55;;;;;;;;;;;15.20;45.40;;;;;;5077552;28;19916;-91
2022/03/17 01:28:21;;;;;;;;;;;15.20;45.50;;;;;;5078130;28;19992;-89
2022/03/17 01:30:46;;;;;;;;;;;15.20;45.40;;;;;;5075274;28;20267;-89
2022/03/17 01:33:12;;;;;;;;;;;15.20;45.40;;;;;;5062554;28;19920;-90
2022/03/17 01:35:41;;;;;;;;;;;15.20;45.40;;;;;;5062998;28;19916;-89
2022/03/17 01:38:08;;;;;;;;;;;15.30;45.40;;;;;;5079419;28;19927;-90
2022/03/17 01:40:34;;;;;;;;;;;15.30;45.30;;;;;;5079256;28;19908;-90
2022/03/17 01:42:59;;;;;;;;;;;15.30;45.30;;;;;;5061057;28;19928;-89
2022/03/17 01:45:26;;;;;;;;;;;15.30;45.30;;;;;;5060702;28;19939;-91
2022/03/17 01:47:52;;;;;;;;;;;15.30;45.20;;;;;;5059415;28;19922;-89
2022/03/17 01:50:17;;;;;;;;;;;15.30;45.20;;;;;;5072675;28;20355;-92
2022/03/17 01:52:43;;;;;;;;;;;15.40;45.10;;;;;;5040890;28;19912;-89
2022/03/17 01:55:10;;;;;;;;;;;15.40;45.10;;;;;;5044331;28;20055;-91
2022/03/17 01:57:38;;;;;;;;;;;15.40;45.10;;;;;;5041507;28;19920;-90
2022/03/17 02:00:04;;;;;;;;;;;15.40;45.10;;;;;;5037536;28;19913;-89
2022/03/17 02:02:30;;;;;;;;;;;15.40;45.10;;;;;;5058174;28;20429;-89
2022/03/17 02:04:55;;;;;;;;;;;15.40;45.00;;;;;;5040571;28;19913;-91
2022/03/17 02:07:21;;;;;;;;;;;15.40;45.00;;;;;;5057747;28;19959;-90
2022/03/17 02:09:48;;;;;;;;;;;15.40;45.00;;;;;;5058220;28;19970;-89
2022/03/17 02:14:59;;;;;;;;;;;15.40;44.90;;;;;;5074452;28;19920;-92
2022/03/17 02:17:25;;;;;;;;;;;15.30;45.00;;;;;;5075355;28;19916;-91
2022/03/17 02:19:51;;;;;;;;;;;15.40;44.90;;;;;;5078745;28;19937;-89
2022/03/17 02:22:18;;;;;;;;;;;15.40;44.90;;;;;;5059476;28;20003;-91
2022/03/17 02:27:30;;;;;;;;;;;15.40;44.90;;;;;;5079961;28;20053;-90
2022/03/17 02:29:55;;;;;;;;;;;15.40;44.90;;;;;;5058357;28;19919;-91
2022/03/17 02:32:21;;;;;;;;;;;15.40;44.90;;;;;;5061476;28;19921;-91
2022/03/17 02:34:47;;;;;;;;;;;15.40;44.80;;;;;;5076039;28;19982;-90
2022/03/17 02:37:12;;;;;;;;;;;15.50;44.80;;;;;;5059002;28;20000;-91
2022/03/17 02:39:38;;;;;;;;;;;15.50;44.80;;;;;;5060794;28;19916;-89
2022/03/17 02:42:05;;;;;;;;;;;15.50;44.80;;;;;;5078899;28;19908;-91
2022/03/17 02:44:31;;;;;;;;;;;15.40;44.80;;;;;;5060982;28;19917;-91
2022/03/17 02:46:57;;;;;;;;;;;15.50;44.80;;;;;;5061431;28;19912;-90
2022/03/17 02:49:22;;;;;;;;;;;15.50;44.80;;;;;;5080206;28;19940;-91
2022/03/17 02:51:48;;;;;;;;;;;15.50;44.80;;;;;;5064983;28;19913;-89
2022/03/17 02:54:13;;;;;;;;;;;15.50;44.70;;;;;;5074316;28;20011;-91
2022/03/17 02:56:39;;;;;;;;;;;15.50;44.70;;;;;;5058700;28;19917;-91
2022/03/17 02:59:04;;;;;;;;;;;15.60;44.70;;;;;;5075734;28;19962;-89
2022/03/17 03:01:30;;;;;;;;;;;15.60;44.70;;;;;;5058649;28;19916;-91
2022/03/17 03:03:55;;;;;;;;;;;15.50;44.70;;;;;;5062393;28;19912;-91
2022/03/17 03:06:21;;;;;;;;;;;15.60;44.60;;;;;;5061245;28;19909;-91
2022/03/17 03:08:47;;;;;;;;;;;15.70;44.60;;;;;;5076049;28;19912;-89
2022/03/17 03:11:13;;;;;;;;;;;15.60;44.80;;;;;;5065773;28;20092;-88
2022/03/17 03:13:38;;;;;;;;;;;15.70;44.90;;;;;;5057602;28;19912;-90
2022/03/17 03:16:04;;;;;;;;;;;15.70;45.00;;;;;;5058753;28;20018;-89
2022/03/17 03:18:29;;;;;;;;;;;15.70;45.10;;;;;;5056658;28;20359;-90
2022/03/17 03:20:55;;;;;;;;;;;15.60;45.10;;;;;;5057676;28;19912;-90
2022/03/17 03:23:20;;;;;;;;;;;15.60;45.00;;;;;;5057626;28;19975;-89
2022/03/17 03:25:46;;;;;;;;;;;15.70;44.90;;;;;;5059330;28;19913;-89
2022/03/17 03:28:12;;;;;;;;;;;15.70;44.80;;;;;;5057096;28;20046;-89
2022/03/17 03:30:39;;;;;;;;;;;15.70;44.50;;;;;;5059052;28;20387;-89
2022/03/17 03:33:08;;;;;;;;;;;15.80;44.30;;;;;;5056156;28;19913;-91
2022/03/17 03:38:19;;;;;;;;;;;15.90;44.00;;;;;;5073247;28;20034;-88
2022/03/17 03:40:45;;;;;;;;;;;15.90;43.80;;;;;;5079643;28;20419;-89
2022/03/17 03:43:10;;;;;;;;;;;16.00;43.60;;;;;;5057463;28;19960;-89
2022/03/17 03:45:36;;;;;;;;;;;16.00;43.50;;;;;;5056882;28;19908;-90
2022/03/17 03:48:01;;;;;;;;;;;16.10;43.40;;;;;;5075181;28;19928;-89
2022/03/17 03:50:28;;;;;;;;;;;16.10;43.30;;;;;;5061844;28;19909;-91
2022/03/17 03:52:53;;;;;;;;;;;16.10;43.10;;;;;;5057853;28;20018;-91
2022/03/17 03:55:19;;;;;;;;;;;16.10;43.00;;;;;;5059270;28;20013;-89
2022/03/17 03:57:46;;;;;;;;;;;16.20;42.90;;;;;;5062017;28;19945;-88
2022/03/17 04:02:55;;;;;;;;;;;16.20;42.70;;;;;;5076606;28;19923;-90
2022/03/17 04:05:25;;;;;;;;;;;16.30;42.60;;;;;;5075761;28;19909;-90
2022/03/17 04:07:51;;;;;;;;;;;16.20;42.50;;;;;;5077974;28;19983;-89
2022/03/17 04:10:16;;;;;;;;;;;16.20;42.30;;;;;;5059969;28;20271;-90
2022/03/17 04:12:42;;;;;;;;;;;16.30;42.20;;;;;;5061311;28;19916;-89
2022/03/17 04:15:07;;;;;;;;;;;16.30;42.10;;;;;;5060837;28;19995;-91
2022/03/17 04:17:33;;;;;;;;;;;16.30;42.00;;;;;;5063764;28;20007;-89
2022/03/17 04:19:58;;;;;;;;;;;16.40;42.00;;;;;;5058522;28;19909;-89
2022/03/17 04:22:24;;;;;;;;;;;16.40;41.70;;;;;;5068629;28;19912;-89
2022/03/17 04:24:49;;;;;;;;;;;16.40;41.80;;;;;;5079472;28;20389;-89
2022/03/17 04:27:15;;;;;;;;;;;16.50;41.60;;;;;;5064122;28;19913;-90
2022/03/17 04:29:40;;;;;;;;;;;16.50;41.60;;;;;;5080742;28;20003;-91
2022/03/17 04:32:06;;;;;;;;;;;16.50;41.50;;;;;;5062975;28;19927;-90
2022/03/17 04:34:32;;;;;;;;;;;16.50;41.40;;;;;;5084934;28;19936;-91
2022/03/17 04:36:57;;;;;;;;;;;16.40;41.40;;;;;;5062904;28;19923;-91
2022/03/17 04:39:23;;;;;;;;;;;16.50;41.40;;;;;;5064403;28;19920;-91
2022/03/17 04:41:48;;;;;;;;;;;16.50;41.30;;;;;;5063457;28;20023;-91
2022/03/17 04:44:18;;;;;;;;;;;16.50;41.20;;;;;;5059114;28;19947;-91
2022/03/17 04:46:46;;;;;;;;;;;16.60;41.10;;;;;;5060077;28;19908;-91
2022/03/17 04:49:12;;;;;;;;;;;16.60;41.10;;;;;;5060170;28;19921;-89
2022/03/17 04:51:37;;;;;;;;;;;16.70;41.00;;;;;;5060415;28;19908;-89
2022/03/17 04:54:03;;;;;;;;;;;16.60;41.00;;;;;;5060661;28;19920;-89
2022/03/17 04:56:28;;;;;;;;;;;16.60;40.90;;;;;;5077831;28;19932;-90
2022/03/17 04:58:54;;;;;;;;;;;16.50;41.00;;;;;;5059214;28;19982;-88
2022/03/17 05:01:20;;;;;;;;;;;16.60;40.90;;;;;;5063120;28;19908;-90
2022/03/17 05:03:45;;;;;;;;;;;16.70;40.90;;;;;;5064213;28;19917;-91
2022/03/17 05:06:12;;;;;;;;;;;16.70;40.80;;;;;;5079262;28;20801;-89
2022/03/17 05:08:39;;;;;;;;;;;16.70;40.70;;;;;;5060765;28;19948;-90
2022/03/17 05:11:06;;;;;;;;;;;16.70;40.70;;;;;;5063950;28;19908;-90
2022/03/17 05:13:32;;;;;;;;;;;16.70;40.70;;;;;;5078404;28;20356;-91
2022/03/17 05:15:58;;;;;;;;;;;16.60;40.60;;;;;;5077409;28;20011;-91
2022/03/17 05:18:23;;;;;;;;;;;16.60;40.60;;;;;;5060607;28;19923;-90
2022/03/17 05:20:49;;;;;;;;;;;16.60;40.60;;;;;;5060732;28;20023;-91
2022/03/17 05:23:16;;;;;;;;;;;16.60;40.60;;;;;;5059221;28;20270;-91
2022/03/17 05:25:42;;;;;;;;;;;16.50;40.60;;;;;;5060259;28;19944;-91
2022/03/17 05:28:08;;;;;;;;;;;16.60;40.60;;;;;;5061847;28;20011;-89
2022/03/17 05:30:34;;;;;;;;;;;16.60;40.60;;;;;;5060801;28;19943;-90
2022/03/17 05:33:00;;;;;;;;;;;16.60;40.50;;;;;;5080539;28;20317;-90
2022/03/17 05:35:26;;;;;;;;;;;16.60;40.50;;;;;;5064360;28;19912;-88
2022/03/17 05:37:53;;;;;;;;;;;16.70;40.50;;;;;;5060027;28;19952;-89
2022/03/17 05:40:19;;;;;;;;;;;16.70;40.50;;;;;;5080176;28;19909;-91
2022/03/17 05:42:49;;;;;;;;;;;16.70;40.50;;;;;;5060340;28;20968;-90
2022/03/17 05:45:15;;;;;;;;;;;16.70;40.40;;;;;;5060420;28;19943;-90
2022/03/17 05:47:42;;;;;;;;;;;16.70;40.30;;;;;;5057470;28;19920;-89
2022/03/17 05:50:09;;;;;;;;;;;16.70;40.30;;;;;;5081964;28;20329;-89
2022/03/17 05:52:35;;;;;;;;;;;16.70;40.30;;;;;;5064406;28;19913;-89
2022/03/17 05:55:01;;;;;;;;;;;16.70;40.30;;;;;;5078773;28;19913;-89
2022/03/17 05:57:26;;;;;;;;;;;16.80;40.30;;;;;;5059628;28;19916;-90
2022/03/17 05:59:52;;;;;;;;;;;16.80;40.30;;;;;;5080052;28;20055;-88
2022/03/17 06:02:17;;;;;;;;;;;16.80;40.20;;;;;;5078027;28;19913;-89
2022/03/17 06:04:43;;;;;;;;;;;16.80;40.10;;;;;;5084117;28;19912;-88
2022/03/17 06:07:08;;;;;;;;;;;16.80;40.10;;;;;;5060384;28;19909;-89
2022/03/17 06:09:34;;;;;;;;;;;16.80;40.20;;;;;;5062138;28;19935;-90
2022/03/17 06:14:30;;;;;;;;;;;16.80;40.30;;;;;;5110304;22;20002;-89
2022/03/17 06:16:56;;;;;;;;;;;16.80;40.30;;;;;;5088906;28;19970;-90
2022/03/17 06:19:22;;;;;;;;;;;16.90;40.30;;;;;;5100729;28;19908;-88
2022/03/17 06:21:47;;;;;;;;;;;16.90;40.10;;;;;;5102204;28;19915;-90
2022/03/17 06:24:12;;;;;;;;;;;17.00;40.10;;;;;;5102216;28;19914;-90
2022/03/17 06:26:38;;;;;;;;;;;17.00;40.00;;;;;;5122410;28;19916;-88
2022/03/17 06:29:04;;;;;;;;;;;17.00;39.90;;;;;;5124150;28;19896;-89
2022/03/17 06:31:29;;;;;;;;;;;17.00;39.90;;;;;;5101338;28;19924;-91
2022/03/17 06:33:55;;;;;;;;;;;17.10;39.80;;;;;;5100555;28;19919;-88
2022/03/17 06:36:21;;;;;;;;;;;17.10;39.80;;;;;;5100535;28;20339;-89
2022/03/17 06:38:47;;;;;;;;;;;17.10;39.80;;;;;;5103529;28;20261;-89
2022/03/17 06:41:12;;;;;;;;;;;17.10;39.80;;;;;;5100512;28;19947;-91
2022/03/17 06:43:38;;;;;;;;;;;17.10;39.90;;;;;;5101491;28;19907;-90
2022/03/17 06:46:03;;;;;;;;;;;17.10;40.10;;;;;;5101039;28;19975;-90
2022/03/17 06:48:29;;;;;;;;;;;17.00;40.50;;;;;;5099742;28;19916;-88
2022/03/17 06:50:54;;;;;;;;;;;16.90;40.70;;;;;;5099939;28;20002;-90
2022/03/17 06:53:19;;;;;;;;;;;16.90;40.70;;;;;;5121496;28;19951;-88
2022/03/17 06:55:45;;;;;;;;;;;16.90;40.70;;;;;;5103491;28;19931;-90
2022/03/17 06:58:10;;;;;;;;;;;16.90;40.70;;;;;;5097664;28;19920;-91
2022/03/17 07:00:45;;;;;;;;;;;16.90;40.80;;;;;;5118320;28;19915;-89
2022/03/17 07:03:10;;;;;;;;;;;16.90;41.10;;;;;;5096917;28;20170;-89
2022/03/17 07:05:36;;;;;;;;;;;16.80;41.90;;;;;;5117210;28;19911;-90
2022/03/17 07:08:01;;;;;;;;;;;16.70;42.40;;;;;;5102942;28;19915;-89
2022/03/17 07:10:27;;;;;;;;;;;16.60;42.70;;;;;;5097105;28;19959;-91
2022/03/17 07:12:53;;;;;;;;;;;16.50;43.20;;;;;;5095423;28;20010;-89
2022/03/17 07:15:19;;;;;;;;;;;16.40;44.00;;;;;;5083380;28;20311;-88
2022/03/17 07:17:44;;;;;;;;;;;16.30;44.40;;;;;;5076507;28;19916;-89
2022/03/17 07:20:12;;;;;;;;;;;16.20;45.20;;;;;;5082798;28;20263;-88
2022/03/17 07:22:40;;;;;;;;;;;16.10;45.90;;;;;;5079366;28;19920;-89
2022/03/17 07:25:06;;;;;;;;;;;16.00;46.60;;;;;;5076053;28;19943;-92
2022/03/17 07:27:35;;;;;;;;;;;15.90;49.60;;;;;;5070615;28;19916;-91
2022/03/17 07:30:02;;;;;;;;;;;15.80;51.00;;;;;;5077408;28;19912;-90
2022/03/17 07:32:30;;;;;;;;;;;15.60;52.40;;;;;;5082331;28;19938;-89
2022/03/17 07:34:56;;;;;;;;;;;15.50;53.50;;;;;;5076942;28;19955;-89
2022/03/17 07:37:22;;;;;;;;;;;15.50;54.80;;;;;;5095070;28;19986;-89
2022/03/17 07:39:49;;;;;;;;;;;15.40;55.70;;;;;;5078066;28;19999;-89
2022/03/17 07:42:15;;;;;;;;;;;15.30;56.00;;;;;;5095577;28;19973;-89
2022/03/17 07:44:41;;;;;;;;;;;15.30;56.70;;;;;;5087597;28;19919;-89
2022/03/17 07:47:10;;;;;;;;;;;15.20;56.70;;;;;;5060334;28;20692;-88
2022/03/17 07:49:38;;;;;;;;;;;15.10;57.40;;;;;;5077527;28;19919;-88
2022/03/17 07:52:03;;;;;;;;;;;15.10;57.60;;;;;;5100331;28;19920;-88
2022/03/17 07:54:29;;;;;;;;;;;15.10;58.00;;;;;;5098652;28;19916;-88
2022/03/17 07:56:55;;;;;;;;;;;15.00;58.50;;;;;;5080399;28;20337;-88
2022/03/17 07:59:21;;;;;;;;;;;15.00;59.00;;;;;;5081101;28;20256;-90
2022/03/17 08:01:47;;;;;;;;;;;14.90;59.10;;;;;;5083062;28;19951;-90
2022/03/17 08:04:12;;;;;;;;;;;15.00;59.30;;;;;;5077343;28;20248;-88
2022/03/17 08:06:38;;;;;;;;;;;15.00;59.50;;;;;;5078945;28;20577;-88
2022/03/17 08:09:03;;;;;;;;;;;15.00;59.70;;;;;;5083347;28;19912;-88
2022/03/17 08:11:29;;;;;;;;;;;15.00;60.00;;;;;;5105652;28;19912;-88
2022/03/17 08:13:54;;;;;;;;;;;15.00;60.20;;;;;;5094438;28;19920;-88
2022/03/17 08:16:20;;;;;;;;;;;15.00;60.40;;;;;;5077468;28;19916;-89
2022/03/17 08:18:45;;;;;;;;;;;15.10;60.80;;;;;;5083958;28;20407;-89
2022/03/17 08:21:12;;;;;;;;;;;15.00;60.90;;;;;;5081683;28;19912;-88
2022/03/17 08:23:37;;;;;;;;;;;15.00;61.10;;;;;;5080796;28;20660;-89
2022/03/17 08:26:03;;;;;;;;;;;15.00;61.30;;;;;;5099466;28;20068;-90
2022/03/17 08:28:29;;;;;;;;;;;15.00;61.50;;;;;;5099664;28;19916;-89
2022/03/17 08:30:54;;;;;;;;;;;15.00;61.60;;;;;;5080245;28;20707;-89
2022/03/17 08:33:19;;;;;;;;;;;15.00;61.90;;;;;;5102840;28;19908;-89
2022/03/17 08:35:45;;;;;;;;;;;15.00;61.90;;;;;;5079960;28;20026;-88
2022/03/17 08:38:12;;;;;;;;;;;15.00;62.00;;;;;;5081831;28;20294;-87
2022/03/17 08:40:40;;;;;;;;;;;15.10;62.10;;;;;;5099513;28;19939;-88
2022/03/17 08:43:07;;;;;;;;;;;15.10;62.20;;;;;;5096215;28;19935;-89
2022/03/17 08:51:01;;;;;;;;;;;15.20;62.40;;;;;;5086328;28;19989;-88
2022/03/17 08:53:26;;;;;;;;;;;15.20;62.40;;;;;;5076589;28;20732;-90
2022/03/17 08:55:52;;;;;;;;;;;15.20;62.50;;;;;;5078486;28;19921;-90
2022/03/17 08:58:17;;;;;;;;;;;15.20;62.60;;;;;;5077215;28;19921;-90
2022/03/17 09:00:44;;;;;;;;;;;15.30;62.60;;;;;;5080859;28;19912;-90
2022/03/17 09:03:10;;;;;;;;;;;15.30;62.50;;;;;;5077934;28;19920;-88
2022/03/17 09:05:36;;;;;;;;;;;15.30;62.60;;;;;;5077508;28;20004;-88
2022/03/17 09:08:05;;;;;;;;;;;15.30;62.70;;;;;;5080053;28;19916;-89
2022/03/17 09:10:31;;;;;;;;;;;15.30;62.50;;;;;;5076178;28;19916;-88
2022/03/17 09:12:57;;;;;;;;;;;15.30;62.50;;;;;;5077846;28;19943;-87
2022/03/17 09:15:27;;;;;;;;;;;15.30;62.40;;;;;;5065785;28;19917;-89
2022/03/17 09:17:53;;;;;;;;;;;15.30;62.30;;;;;;5074294;28;20268;-88
2022/03/17 09:20:18;;;;;;;;;;;15.20;62.10;;;;;;5082740;28;19940;-90
2022/03/17 09:22:44;;;;;;;;;;;15.20;62.00;;;;;;5099832;28;19920;-89
2022/03/17 09:25:10;;;;;;;;;;;15.20;62.00;;;;;;5118906;28;19956;-90
2022/03/17 09:27:36;;;;;;;;;;;15.10;61.90;;;;;;5101592;28;19941;-88
2022/03/17 09:30:02;;;;;;;;;;;15.10;61.90;;;;;;5102214;28;19916;-89
2022/03/17 09:32:28;;;;;;;;;;;15.20;62.00;;;;;;5098990;28;19923;-88
2022/03/17 09:34:53;;;;;;;;;;;15.10;62.00;;;;;;5121921;28;19916;-89
2022/03/17 09:37:19;;;;;;;;;;;15.20;62.00;;;;;;5118596;28;19935;-88
2022/03/17 09:39:47;;;;;;;;;;;15.20;62.00;;;;;;5104264;28;19916;-88
2022/03/17 09:42:14;;;;;;;;;;;15.20;62.10;;;;;;5095047;28;19920;-90
2022/03/17 09:44:40;;;;;;;;;;;15.20;62.00;;;;;;5121045;28;20302;-90
2022/03/17 09:47:09;;;;;;;;;;;15.20;62.00;;;;;;5099752;28;19916;-89
2022/03/17 09:49:37;;;;;;;;;;;15.20;61.90;;;;;;5117005;28;19951;-90
2022/03/17 09:52:10;;;;;;;;;;;15.20;62.00;;;;;;5077269;28;19920;-88
2022/03/17 09:54:35;;;;;;;;;;;15.20;61.90;;;;;;5057377;28;20707;-88
2022/03/17 09:57:01;;;;;;;;;;;15.20;62.00;;;;;;5060559;28;19928;-88
2022/03/17 09:59:26;;;;;;;;;;;15.20;62.00;;;;;;5076347;28;19942;-90
2022/03/17 10:01:52;;;;;;;;;;;15.20;61.80;;;;;;5069694;28;19916;-89
2022/03/17 10:04:18;;;;;;;;;;;15.20;61.90;;;;;;5067192;28;20066;-90
2022/03/17 10:06:43;;;;;;;;;;;15.20;61.80;;;;;;5077423;28;19962;-88
2022/03/17 10:09:09;;;;;;;;;;;15.10;61.70;;;;;;5083366;28;20016;-91
2022/03/17 10:11:43;;;;;;;;;;;15.20;61.80;;;;;;5059270;28;19994;-90
2022/03/17 10:14:09;;;;;;;;;;;15.10;61.90;;;;;;5059031;28;19923;-90
2022/03/17 10:16:36;;;;;;;;;;;15.20;62.10;;;;;;5058277;28;19925;-90
2022/03/17 10:19:06;;;;;;;;;;;15.20;62.10;;;;;;5079604;28;19919;-90
2022/03/17 10:21:32;;;;;;;;;;;15.20;62.30;;;;;;5086658;28;19942;-88
2022/03/17 10:23:59;;;;;;;;;;;15.30;62.20;;;;;;5100271;28;19912;-88
2022/03/17 10:26:38;;;;;;;;;;;15.30;62.00;;;;;;5101688;28;19939;-87
2022/03/17 10:29:09;;;;;;;;;;;15.40;62.10;;;;;;5122026;28;19943;-88
2022/03/17 10:31:54;;;;;;;;;;;15.40;62.30;;;;;;5116491;28;19916;-89
2022/03/17 10:34:20;;;;;;;;;;;15.50;62.30;;;;;;5101716;28;19923;-91
2022/03/17 10:36:45;;;;;;;;;;;15.50;62.60;;;;;;5099119;28;20246;-89
2022/03/17 10:39:11;;;;;;;;;;;15.70;62.50;;;;;;5099691;28;19996;-89
2022/03/17 10:41:45;;;;;;;;;;;15.80;62.20;;;;;;5118572;28;19900;-88
2022/03/17 10:44:12;;;;;;;;;;;15.80;62.20;;;;;;5102043;28;19908;-88
2022/03/17 10:46:38;;;;;;;;;;;15.90;62.30;;;;;;5121350;28;19950;-88
2022/03/17 10:49:05;;;;;;;;;;;16.00;62.20;;;;;;5121181;28;19912;-90
2022/03/17 10:51:35;;;;;;;;;;;16.10;62.00;;;;;;5100504;28;20585;-89
2022/03/17 10:54:03;;;;;;;;;;;16.10;61.80;;;;;;5099322;28;19935;-91
2022/03/17 10:56:28;;;;;;;;;;;16.10;62.00;;;;;;5100561;28;19920;-91
2022/03/17 10:58:54;;;;;;;;;;;16.20;62.00;;;;;;5099308;28;20752;-90
2022/03/17 11:01:33;;;;;;;;;;;16.20;61.80;;;;;;5100580;28;19912;-88
2022/03/17 11:03:59;;;;;;;;;;;16.20;61.50;;;;;;5095518;28;19909;-89
2022/03/17 11:06:24;;;;;;;;;;;16.20;61.60;;;;;;5100455;28;19995;-90
2022/03/17 11:08:50;;;;;;;;;;;16.10;61.50;;;;;;5101251;28;19919;-90
2022/03/17 11:11:16;;;;;;;;;;;16.10;61.50;;;;;;5100005;28;20015;-89
2022/03/17 11:13:42;;;;;;;;;;;16.10;61.50;;;;;;5102528;28;20002;-88
2022/03/17 11:16:09;;;;;;;;;;;16.10;61.40;;;;;;5118736;28;19927;-87
2022/03/17 11:18:39;;;;;;;;;;;16.10;61.50;;;;;;5103793;28;19919;-88
2022/03/17 11:21:16;;;;;;;;;;;16.10;61.40;;;;;;5092238;28;19966;-89
2022/03/17 11:23:56;;;;;;;;;;;16.10;61.10;;;;;;5088834;28;19931;-90
2022/03/17 11:26:34;;;;;;;;;;;16.00;61.20;;;;;;5081394;28;19935;-89
2022/03/17 11:29:10;;;;;;;;;;;16.10;61.50;;;;;;5083419;28;19934;-88
2022/03/17 11:31:55;;;;;;;;;;;16.10;61.90;;;;;;5078129;28;19927;-89
2022/03/17 11:34:39;;;;;;;;;;;16.20;61.60;;;;;;5080027;28;19941;-88
2022/03/17 11:37:16;;;;;;;;;;;16.20;61.70;;;;;;5098992;28;19928;-90
2022/03/17 11:39:49;;;;;;;;;;;16.20;61.60;;;;;;5098403;28;19993;-90
2022/03/17 11:42:34;;;;;;;;;;;16.20;61.50;;;;;;5079052;28;19920;-89
2022/03/17 11:45:09;;;;;;;;;;;16.10;61.00;;;;;;5081435;28;19912;-89
2022/03/17 11:47:36;;;;;;;;;;;16.00;61.00;;;;;;5097818;28;19940;-90
2022/03/17 11:50:20;;;;;;;;;;;16.00;61.00;;;;;;5079504;28;19913;-90
2022/03/17 11:52:59;;;;;;;;;;;16.00;60.70;;;;;;5080885;28;19920;-89
2022/03/17 11:55:44;;;;;;;;;;;16.00;61.20;;;;;;5081800;28;19912;-89
2022/03/17 11:58:17;;;;;;;;;;;16.10;61.30;;;;;;5080247;28;22593;-89
2022/03/17 12:00:46;;;;;;;;;;;16.00;61.00;;;;;;5077733;28;20557;-88
2022/03/17 12:03:12;;;;;;;;;;;16.10;61.30;;;;;;5079150;28;19928;-90
2022/03/17 12:05:38;;;;;;;;;;;16.10;61.20;;;;;;5076422;28;20371;-89
2022/03/17 12:08:04;;;;;;;;;;;16.00;60.80;;;;;;5087232;28;20041;-88
2022/03/17 12:10:55;;;;;;;;;;;16.00;60.10;;;;;;5088310;28;19920;-88
2022/03/17 12:13:21;;;;;;;;;;;15.90;60.50;;;;;;5092434;28;20061;-90
2022/03/17 12:15:54;;;;;;;;;;;15.90;60.40;;;;;;5079692;28;19936;-88
2022/03/17 12:18:20;;;;;;;;;;;15.90;60.50;;;;;;5097719;28;19920;-89
2022/03/17 12:20:46;;;;;;;;;;;15.80;59.80;;;;;;5100528;28;19975;-90
2022/03/17 12:23:30;;;;;;;;;;;15.90;60.30;;;;;;5079665;28;19920;-90
2022/03/17 12:26:05;;;;;;;;;;;15.90;59.90;;;;;;5099496;28;19935;-90
2022/03/17 12:28:30;;;;;;;;;;;16.00;60.80;;;;;;5083847;28;20011;-90
2022/03/17 12:30:57;;;;;;;;;;;16.10;60.80;;;;;;5097248;28;19940;-89
2022/03/17 12:33:23;;;;;;;;;;;16.20;60.80;;;;;;5078002;28;20772;-88
2022/03/17 12:36:02;;;;;;;;;;;16.20;61.00;;;;;;5100587;28;19919;-89
2022/03/17 12:38:28;;;;;;;;;;;16.30;61.10;;;;;;5101105;28;19915;-90
2022/03/17 12:40:53;;;;;;;;;;;16.40;61.10;;;;;;5098691;28;20003;-88
2022/03/17 12:43:21;;;;;;;;;;;16.50;61.10;;;;;;5096944;28;19974;-90
2022/03/17 12:45:47;;;;;;;;;;;16.50;60.20;;;;;;5077984;28;20136;-90
2022/03/17 12:48:13;;;;;;;;;;;16.50;60.40;;;;;;5085118;28;19920;-89
2022/03/17 12:50:39;;;;;;;;;;;16.50;60.70;;;;;;5081274;28;19976;-88
2022/03/17 12:53:05;;;;;;;;;;;16.50;60.30;;;;;;5098057;28;19956;-90
2022/03/17 12:55:31;;;;;;;;;;;16.50;60.20;;;;;;5095754;28;20688;-90
2022/03/17 12:57:57;;;;;;;;;;;16.50;60.60;;;;;;5097803;28;19920;-89
2022/03/17 13:00:23;;;;;;;;;;;16.50;59.90;;;;;;5096361;28;19927;-89
2022/03/17 13:02:49;;;;;;;;;;;16.40;59.20;;;;;;5095975;28;19943;-90
2022/03/17 13:08:00;;;;;;;;;;;16.30;58.00;;;;;;5096719;28;20001;-88
2022/03/17 13:10:27;;;;;;;;;;;16.10;58.10;;;;;;5098210;28;19950;-89
2022/03/17 13:15:37;;;;;;;;;;;16.00;57.80;;;;;;5097305;28;19924;-89
2022/03/17 13:18:05;;;;;;;;;;;15.90;56.80;;;;;;5077300;28;19904;-89
2022/03/17 13:20:31;;;;;;;;;;;15.80;56.70;;;;;;5103225;28;19912;-90
2022/03/17 13:23:03;;;;;;;;;;;15.80;56.80;;;;;;5098147;28;19923;-88
2022/03/17 13:25:30;;;;;;;;;;;15.80;57.20;;;;;;5097591;28;19912;-88
2022/03/17 13:27:57;;;;;;;;;;;15.90;57.40;;;;;;5098617;28;19919;-88
2022/03/17 13:30:23;;;;;;;;;;;16.00;56.70;;;;;;5114203;28;19912;-90
2022/03/17 13:32:57;;;;;;;;;;;16.10;55.60;;;;;;5115960;28;20020;-88
2022/03/17 13:35:23;;;;;;;;;;;16.20;56.00;;;;;;5115124;28;20468;-90
2022/03/17 13:37:50;;;;;;;;;;;16.30;56.90;;;;;;5081737;28;20020;-88
2022/03/17 13:40:18;;;;;;;;;;;16.50;56.40;;;;;;5076924;28;19908;-90
2022/03/17 13:42:59;;;;;;;;;;;16.60;55.90;;;;;;5073856;28;19920;-90
2022/03/17 13:45:28;;;;;;;;;;;16.60;55.20;;;;;;5081101;28;19920;-88
2022/03/17 13:48:01;;;;;;;;;;;16.80;56.10;;;;;;5075519;28;19926;-90
2022/03/17 13:50:27;;;;;;;;;;;16.80;55.30;;;;;;5088961;28;19938;-89
2022/03/17 13:52:57;;;;;;;;;;;16.80;54.80;;;;;;5074478;28;19916;-90
2022/03/17 13:55:30;;;;;;;;;;;16.80;55.40;;;;;;5055208;28;19912;-89
2022/03/17 13:58:07;;;;;;;;;;;17.00;55.00;;;;;;5057924;28;20444;-88
2022/03/17 14:00:33;;;;;;;;;;;17.00;53.10;;;;;;5059304;28;19948;-88
2022/03/17 14:03:13;;;;;;;;;;;17.00;52.80;;;;;;5071849;28;19921;-88
2022/03/17 14:05:58;;;;;;;;;;;17.10;53.70;;;;;;5059918;28;19912;-88
2022/03/17 14:08:23;;;;;;;;;;;17.10;53.10;;;;;;5074130;28;20366;-88
2022/03/17 14:10:49;;;;;;;;;;;17.20;52.70;;;;;;5071326;28;19912;-90
2022/03/17 14:13:15;;;;;;;;;;;17.20;50.90;;;;;;5056919;28;20009;-90
2022/03/17 14:15:40;;;;;;;;;;;17.20;49.90;;;;;;5110711;28;19915;-89
2022/03/17 14:18:06;;;;;;;;;;;17.10;49.90;;;;;;5113734;28;19931;-90
2022/03/17 14:20:32;;;;;;;;;;;17.10;50.50;;;;;;5103880;28;19919;-89
2022/03/17 14:25:42;;;;;;;;;;;17.20;52.00;;;;;;5114572;28;19919;-90
2022/03/17 14:28:07;;;;;;;;;;;17.30;52.60;;;;;;5116589;28;19919;-90
2022/03/17 14:30:33;;;;;;;;;;;17.30;53.50;;;;;;5099760;28;19911;-90
2022/03/17 14:32:58;;;;;;;;;;;17.40;52.00;;;;;;5094343;28;19920;-89
2022/03/17 14:35:24;;;;;;;;;;;17.40;52.40;;;;;;5095301;28;20014;-90
2022/03/17 14:37:49;;;;;;;;;;;17.50;53.40;;;;;;5093965;28;19959;-88
2022/03/17 14:40:14;;;;;;;;;;;17.60;52.80;;;;;;5114014;28;19915;-90
2022/03/17 14:42:40;;;;;;;;;;;17.50;52.70;;;;;;5113370;28;19973;-88